createdAt,value
2019-04-25T00:01:06.227Z,3.20
2019-04-25T00:03:40.817Z,2.80
2019-04-25T00:06:14.914Z,2.00
2019-04-25T00:08:47.750Z,3.00
2019-04-25T00:11:21.584Z,2.40
2019-04-25T00:13:54.508Z,2.00
2019-04-25T00:16:27.701Z,4.40
2019-04-25T00:19:01.840Z,4.40
2019-04-25T00:21:34.853Z,5.00
2019-04-25T00:24:08.000Z,2.60
2019-04-25T00:26:42.597Z,3.60
2019-04-25T00:29:15.621Z,4.00
2019-04-25T00:31:49.246Z,5.00
2019-04-25T00:34:22.470Z,3.80
2019-04-25T00:36:55.370Z,3.40
2019-04-25T00:39:28.206Z,3.60
2019-04-25T00:42:02.331Z,3.00
2019-04-25T00:44:35.341Z,3.80
2019-04-25T00:47:08.803Z,2.20
2019-04-25T00:49:43.049Z,3.00
2019-04-25T00:52:16.240Z,3.00
2019-04-25T00:54:49.073Z,3.40
2019-04-25T00:57:22.082Z,2.00
2019-04-25T00:59:54.948Z,3.00
2019-04-25T01:02:27.850Z,4.00
2019-04-25T01:05:01.850Z,3.40
2019-04-25T01:07:34.877Z,3.40
2019-04-25T01:10:08.359Z,4.20
2019-04-25T01:12:41.697Z,4.00
2019-04-25T01:15:14.688Z,3.00
2019-04-25T01:17:47.591Z,3.80
2019-04-25T01:20:20.429Z,4.00
2019-04-25T01:22:54.267Z,3.00
2019-04-25T01:25:38.542Z,2.80
2019-04-25T01:28:03.264Z,4.80
2019-04-25T01:30:36.332Z,4.00
2019-04-25T01:33:09.351Z,5.00
2019-04-25T01:35:43.103Z,4.20
2019-04-25T01:38:17.120Z,3.60
2019-04-25T01:40:51.014Z,4.40
2019-04-25T01:43:24.344Z,3.00
2019-04-25T01:45:57.945Z,6.00
2019-04-25T01:48:31.135Z,5.40
2019-04-25T01:51:04.272Z,6.80
2019-04-25T01:53:37.486Z,7.40
2019-04-25T01:56:13.419Z,7.20
2019-04-25T01:58:46.700Z,8.00
2019-04-25T02:01:19.682Z,9.40
2019-04-25T02:03:54.354Z,9.00
2019-04-25T02:06:34.558Z,7.80
2019-04-25T02:09:08.455Z,11.80
2019-04-25T02:11:41.488Z,10.20
2019-04-25T02:14:14.474Z,8.60
2019-04-25T02:16:47.393Z,11.40
2019-04-25T02:19:20.759Z,9.80
2019-04-25T02:21:55.146Z,12.40
2019-04-25T02:24:28.603Z,11.40
2019-04-25T02:27:03.763Z,14.40
2019-04-25T02:29:37.156Z,13.20
2019-04-25T02:32:10.634Z,12.00
2019-04-25T02:34:45.530Z,12.60
2019-04-25T02:37:18.532Z,14.00
2019-04-25T02:39:51.529Z,14.00
2019-04-25T02:42:24.876Z,14.20
2019-04-25T02:45:00.573Z,14.60
2019-04-25T02:47:34.459Z,14.20
2019-04-25T02:50:09.171Z,15.00
2019-04-25T02:52:44.232Z,14.00
2019-04-25T02:55:30.896Z,16.80
2019-04-25T02:57:54.115Z,14.20
2019-04-25T03:00:27.367Z,18.40
2019-04-25T03:03:01.217Z,16.80
2019-04-25T03:05:35.441Z,18.00
2019-04-25T03:08:10.629Z,19.40
2019-04-25T03:10:44.411Z,18.40
2019-04-25T03:13:17.743Z,21.60
2019-04-25T03:15:52.818Z,21.20
2019-04-25T03:18:25.784Z,18.80
2019-04-25T03:20:59.734Z,18.00
2019-04-25T03:23:34.966Z,23.20
2019-04-25T03:26:09.165Z,20.80
2019-04-25T03:28:43.753Z,21.20
2019-04-25T03:31:22.675Z,23.60
2019-04-25T03:33:52.124Z,22.50
2019-04-25T03:36:25.488Z,25.50
2019-04-25T03:38:58.377Z,25.25
2019-04-25T03:41:31.599Z,24.75
2019-04-25T03:44:05.662Z,26.25
2019-04-25T03:46:39.531Z,26.50
2019-04-25T03:49:13.879Z,26.75
2019-04-25T03:51:47.479Z,23.75
2019-04-25T03:54:20.810Z,26.50
2019-04-25T03:56:56.163Z,27.00
2019-04-25T03:59:28.894Z,27.00
2019-04-25T04:02:03.080Z,27.50
2019-04-25T04:04:36.590Z,26.00
2019-04-25T04:07:11.396Z,26.75
2019-04-25T04:09:44.930Z,26.25
2019-04-25T04:12:18.381Z,25.00
2019-04-25T04:14:51.299Z,25.50
2019-04-25T04:17:24.234Z,25.00
2019-04-25T04:19:57.418Z,22.50
2019-04-25T04:22:30.485Z,24.00
2019-04-25T04:25:03.861Z,23.50
2019-04-25T04:27:36.900Z,19.75
2019-04-25T04:30:10.132Z,22.75
2019-04-25T04:32:44.161Z,20.00
2019-04-25T04:35:19.429Z,21.25
2019-04-25T04:37:54.139Z,22.00
2019-04-25T04:40:27.169Z,23.00
2019-04-25T04:43:00.185Z,21.25
2019-04-25T04:45:34.528Z,20.00
2019-04-25T04:48:08.679Z,20.80
2019-04-25T04:50:43.138Z,17.50
2019-04-25T04:53:17.193Z,19.20
2019-04-25T04:55:50.324Z,19.00
2019-04-25T04:58:24.979Z,16.20
2019-04-25T05:00:58.112Z,18.60
2019-04-25T05:03:31.679Z,19.50
2019-04-25T05:06:04.970Z,20.60
2019-04-25T05:08:38.153Z,19.20
2019-04-25T05:11:12.390Z,20.60
2019-04-25T05:13:46.055Z,19.40
2019-04-25T05:16:19.864Z,18.40
2019-04-25T05:18:53.619Z,15.20
2019-04-25T05:21:27.575Z,16.60
2019-04-25T05:24:00.542Z,14.80
2019-04-25T05:26:34.175Z,17.80
2019-04-25T05:29:07.341Z,16.20
2019-04-25T05:31:40.737Z,15.20
2019-04-25T05:34:15.743Z,13.20
2019-04-25T05:36:48.426Z,14.60
2019-04-25T05:39:24.064Z,15.40
2019-04-25T05:41:57.759Z,13.40
2019-04-25T05:44:30.858Z,13.60
2019-04-25T05:47:04.188Z,10.40
2019-04-25T05:49:37.298Z,11.20
2019-04-25T05:52:10.306Z,11.80
2019-04-25T05:54:44.351Z,10.20
2019-04-25T05:57:18.079Z,9.60
2019-04-25T05:59:51.341Z,10.00
2019-04-25T06:02:25.363Z,7.20
2019-04-25T06:04:58.859Z,7.20
2019-04-25T06:07:33.296Z,8.40
2019-04-25T06:10:06.988Z,7.20
2019-04-25T06:12:40.083Z,6.00
2019-04-25T06:15:13.315Z,6.00
2019-04-25T06:17:46.630Z,9.60
2019-04-25T06:20:20.097Z,9.20
2019-04-25T06:22:53.470Z,9.20
2019-04-25T06:25:31.816Z,13.40
2019-04-25T06:28:01.502Z,14.40
2019-04-25T06:30:35.227Z,15.40
2019-04-25T06:33:11.340Z,11.60
2019-04-25T06:35:44.425Z,8.80
2019-04-25T06:38:17.331Z,7.00
2019-04-25T06:40:50.504Z,5.40
2019-04-25T06:43:24.616Z,6.60
2019-04-25T06:45:58.117Z,3.80
2019-04-25T06:48:31.153Z,4.60
2019-04-25T06:51:04.388Z,3.60
2019-04-25T06:53:37.449Z,5.00
2019-04-25T06:56:10.636Z,6.00
2019-04-25T06:58:44.046Z,5.80
2019-04-25T07:01:17.170Z,7.00
2019-04-25T07:03:50.091Z,4.40
2019-04-25T07:06:24.897Z,5.60
2019-04-25T07:08:57.924Z,7.00
2019-04-25T07:11:32.448Z,5.60
2019-04-25T07:14:06.404Z,7.80
2019-04-25T07:16:39.679Z,5.80
2019-04-25T07:19:14.687Z,5.40
2019-04-25T07:21:47.991Z,7.00
2019-04-25T07:24:21.005Z,4.60
2019-04-25T07:26:54.110Z,6.60
2019-04-25T07:29:27.095Z,6.00
2019-04-25T07:32:00.289Z,8.00
2019-04-25T07:34:34.117Z,5.80
2019-04-25T07:37:08.165Z,6.60
2019-04-25T07:39:41.234Z,6.40
2019-04-25T07:42:14.352Z,4.80
2019-04-25T07:44:52.645Z,3.60
2019-04-25T07:47:24.085Z,3.00
2019-04-25T07:49:56.865Z,3.80
2019-04-25T07:52:30.906Z,4.00
2019-04-25T07:55:04.414Z,4.80
2019-04-25T07:57:38.611Z,4.40
2019-04-25T08:00:14.115Z,3.00
2019-04-25T08:02:47.104Z,0.00
2019-04-25T08:05:20.270Z,3.80
2019-04-25T08:07:53.644Z,2.40
2019-04-25T08:10:30.019Z,1.80
2019-04-25T08:13:04.937Z,2.00
2019-04-25T08:15:38.357Z,2.80
2019-04-25T08:18:11.543Z,2.00
2019-04-25T08:20:44.534Z,2.80
2019-04-25T08:23:17.896Z,2.60
2019-04-25T08:25:50.918Z,3.40
2019-04-25T08:28:24.072Z,2.60
2019-04-25T08:30:56.965Z,2.00
2019-04-25T08:33:30.516Z,2.00
2019-04-25T08:36:08.915Z,3.40
2019-04-25T08:38:38.401Z,3.00
2019-04-25T08:41:11.682Z,2.40
2019-04-25T08:43:45.446Z,4.00
2019-04-25T08:46:18.573Z,3.20
2019-04-25T08:48:51.816Z,3.60
2019-04-25T08:51:24.831Z,3.20
2019-04-25T08:53:57.843Z,3.00
2019-04-25T08:56:31.882Z,4.60
2019-04-25T08:59:07.957Z,3.00
2019-04-25T09:01:41.715Z,3.60
2019-04-25T09:04:15.298Z,4.60
2019-04-25T09:06:48.292Z,2.40
2019-04-25T09:09:21.332Z,3.00
2019-04-25T09:11:54.443Z,2.00
2019-04-25T09:14:28.054Z,2.00
2019-04-25T09:17:01.352Z,2.40
2019-04-25T09:19:36.218Z,1.80
2019-04-25T09:22:09.011Z,3.00
2019-04-25T09:24:42.134Z,1.80
2019-04-25T09:27:15.200Z,1.00
2019-04-25T09:29:48.258Z,2.80
2019-04-25T09:32:21.307Z,2.60
2019-04-25T09:34:55.445Z,2.00
2019-04-25T09:37:29.111Z,2.60
2019-04-25T09:40:03.948Z,1.60
2019-04-25T09:42:37.148Z,3.20
2019-04-25T09:45:11.112Z,2.00
2019-04-25T09:47:44.847Z,2.00
2019-04-25T09:50:18.761Z,2.60
2019-04-25T09:52:51.743Z,2.40
2019-04-25T09:55:24.690Z,3.60
2019-04-25T09:57:57.667Z,2.60
2019-04-25T10:00:30.710Z,2.40
2019-04-25T10:03:04.657Z,2.60
2019-04-25T10:05:38.487Z,2.60
2019-04-25T10:08:13.335Z,3.20
2019-04-25T10:10:46.730Z,1.80
2019-04-25T10:13:19.749Z,2.60
2019-04-25T10:16:10.567Z,2.20
2019-04-25T10:18:44.590Z,3.40
2019-04-25T10:21:18.247Z,3.60
2019-04-25T10:23:51.483Z,2.80
2019-04-25T10:26:24.679Z,3.00
2019-04-25T10:28:57.940Z,2.20
2019-04-25T10:31:31.215Z,2.80
2019-04-25T10:34:04.259Z,1.80
2019-04-25T10:36:39.838Z,3.00
2019-04-25T10:39:14.171Z,1.80
2019-04-25T10:41:48.285Z,2.00
2019-04-25T10:44:21.518Z,1.40
2019-04-25T10:46:54.838Z,2.20
2019-04-25T10:49:27.851Z,1.60
2019-04-25T10:52:01.006Z,0.00
2019-04-25T10:54:35.149Z,2.00
2019-04-25T10:57:08.307Z,1.00
2019-04-25T10:59:54.584Z,1.00
2019-04-25T11:02:16.214Z,1.00
2019-04-25T11:04:49.800Z,2.00
2019-04-25T11:07:23.477Z,1.60
2019-04-25T11:09:56.573Z,2.00
2019-04-25T11:12:29.544Z,3.60
2019-04-25T11:15:04.043Z,2.80
2019-04-25T11:17:37.256Z,0.80
2019-04-25T11:20:25.905Z,0.40
2019-04-25T11:22:58.995Z,2.00
2019-04-25T11:25:34.073Z,2.00
2019-04-25T11:28:08.702Z,0.20
2019-04-25T11:30:45.463Z,0.20
2019-04-25T11:33:18.696Z,1.20
2019-04-25T11:38:36.762Z,1.00
2019-04-25T11:41:09.896Z,2.00
2019-04-25T11:43:45.356Z,2.00
2019-04-25T11:46:18.287Z,0.60
2019-04-25T11:48:51.399Z,1.80
2019-04-25T11:51:24.530Z,1.20
2019-04-25T11:53:58.075Z,1.00
2019-04-25T11:56:31.278Z,1.20
2019-04-25T11:59:04.571Z,1.00
2019-04-25T12:01:37.658Z,1.80
2019-04-25T12:04:10.625Z,3.00
2019-04-25T12:06:47.101Z,1.00
2019-04-25T12:09:18.854Z,1.20
2019-04-25T12:11:52.811Z,3.00
2019-04-25T12:14:26.556Z,3.00
2019-04-25T12:16:59.458Z,2.40
2019-04-25T12:19:37.231Z,6.00
2019-04-25T12:22:07.293Z,3.80
2019-04-25T12:24:40.507Z,3.20
2019-04-25T12:27:13.443Z,5.00
2019-04-25T12:29:46.360Z,4.80
2019-04-25T12:32:19.674Z,3.60
2019-04-25T12:34:53.633Z,3.00
2019-04-25T12:37:26.774Z,4.80
2019-04-25T12:39:59.858Z,5.00
2019-04-25T12:42:34.284Z,6.00
2019-04-25T12:45:07.613Z,4.00
2019-04-25T12:47:40.548Z,6.00
2019-04-25T12:50:14.354Z,4.80
2019-04-25T12:52:48.598Z,5.00
2019-04-25T12:55:22.067Z,6.80
2019-04-25T12:57:56.237Z,5.00
2019-04-25T13:00:29.421Z,5.80
2019-04-25T13:03:04.061Z,4.60
2019-04-25T13:05:36.821Z,7.40
2019-04-25T13:08:09.787Z,7.40
2019-04-25T13:10:44.390Z,8.60
2019-04-25T13:13:17.648Z,5.80
2019-04-25T13:15:50.514Z,6.40
2019-04-25T13:18:23.587Z,4.80
2019-04-25T13:20:57.489Z,5.40
2019-04-25T13:23:32.009Z,3.80
2019-04-25T13:26:05.452Z,4.40
2019-04-25T13:28:38.249Z,4.00
2019-04-25T13:31:12.989Z,4.40
2019-04-25T13:33:46.129Z,1.60
2019-04-25T13:36:19.313Z,2.60
2019-04-25T13:38:53.867Z,4.00
2019-04-25T13:41:27.144Z,3.00
2019-04-25T13:44:00.942Z,1.80
2019-04-25T13:46:34.356Z,3.00
2019-04-25T13:49:07.333Z,3.40
2019-04-25T13:51:40.449Z,1.40
2019-04-25T13:54:14.674Z,2.60
2019-04-25T13:56:47.813Z,3.60
2019-04-25T13:59:21.708Z,3.00
2019-04-25T14:01:57.484Z,2.00
2019-04-25T14:04:29.545Z,1.00
2019-04-25T14:07:03.139Z,1.00
2019-04-25T14:09:35.958Z,1.60
2019-04-25T14:12:08.992Z,0.00
2019-04-25T14:14:41.884Z,1.00
2019-04-25T14:17:14.870Z,0.20
2019-04-25T14:19:48.019Z,0.40
2019-04-25T14:22:21.215Z,1.00
2019-04-25T14:24:54.937Z,0.00
2019-04-25T14:27:28.037Z,0.00
2019-04-25T14:30:00.964Z,0.00
2019-04-25T14:32:35.106Z,0.00
2019-04-25T14:35:08.305Z,0.00
2019-04-25T14:37:41.186Z,5.80
2019-04-25T14:40:14.399Z,0.00
2019-04-25T14:42:47.318Z,0.00
2019-04-25T14:45:20.225Z,0.60
2019-04-25T14:47:53.111Z,0.40
2019-04-25T14:50:26.016Z,0.00
2019-04-25T14:52:58.889Z,0.00
2019-04-25T14:55:31.749Z,0.00
2019-04-25T14:58:04.940Z,0.00
2019-04-25T15:00:37.913Z,0.00
2019-04-25T15:03:10.822Z,1.00
2019-04-25T15:05:43.685Z,0.00
2019-04-25T15:08:16.566Z,0.00
2019-04-25T15:10:49.378Z,0.00
2019-04-25T15:13:24.098Z,0.00
2019-04-25T15:15:57.084Z,0.00
2019-04-25T15:18:30.986Z,0.00
2019-04-25T15:21:03.989Z,0.00
2019-04-25T15:23:37.185Z,0.00
2019-04-25T15:26:10.000Z,0.00
2019-04-25T15:28:43.638Z,0.00
2019-04-25T15:31:16.821Z,0.00
2019-04-25T15:33:50.674Z,0.00
2019-04-25T15:36:23.650Z,0.00
2019-04-25T15:38:57.814Z,0.00
2019-04-25T15:41:30.637Z,0.00
2019-04-25T15:44:03.774Z,0.00
2019-04-25T15:46:36.599Z,0.00
2019-04-25T15:49:09.639Z,0.00
2019-04-25T15:51:42.464Z,0.00
2019-04-25T15:54:15.345Z,0.40
2019-04-25T15:56:48.293Z,0.00
2019-04-25T15:59:21.735Z,0.00
2019-04-25T16:01:54.752Z,0.20
2019-04-25T16:04:28.257Z,0.00
2019-04-25T16:07:01.183Z,1.00
2019-04-25T16:09:34.583Z,0.80
2019-04-25T16:12:07.594Z,0.40
2019-04-25T16:14:41.235Z,0.40
2019-04-25T16:17:14.266Z,1.00
2019-04-25T16:19:47.286Z,0.60
2019-04-25T16:22:20.359Z,1.20
2019-04-25T16:24:53.456Z,1.00
2019-04-25T16:27:26.405Z,0.40
2019-04-25T16:29:59.515Z,0.00
2019-04-25T16:32:32.498Z,0.00
2019-04-25T16:35:05.672Z,1.00
2019-04-25T16:37:38.938Z,1.00
2019-04-25T16:40:12.120Z,0.80
2019-04-25T16:42:45.076Z,0.80
2019-04-25T16:45:18.267Z,1.00
2019-04-25T16:47:51.280Z,1.00
2019-04-25T16:50:24.709Z,0.80
2019-04-25T16:52:57.699Z,1.00
2019-04-25T16:55:31.700Z,0.40
2019-04-25T16:58:04.750Z,0.00
2019-04-25T17:00:38.342Z,0.80
2019-04-25T17:03:11.317Z,1.00
2019-04-25T17:05:44.294Z,0.80
2019-04-25T17:08:17.199Z,0.80
2019-04-25T17:10:50.424Z,0.80
2019-04-25T17:13:23.351Z,0.00
2019-04-25T17:15:56.342Z,0.60
2019-04-25T17:18:29.722Z,0.60
2019-04-25T17:21:04.114Z,6.40
2019-04-25T17:23:37.288Z,0.80
2019-04-25T17:26:10.491Z,0.00
2019-04-25T17:28:43.521Z,1.00
2019-04-25T17:31:16.545Z,0.20
2019-04-25T17:33:49.471Z,1.60
2019-04-25T17:36:22.613Z,0.80
2019-04-25T17:38:55.689Z,6.00
2019-04-25T17:41:28.757Z,1.60
2019-04-25T17:44:01.653Z,2.00
2019-04-25T17:46:34.697Z,1.00
2019-04-25T17:49:07.648Z,1.00
2019-04-25T17:51:40.744Z,2.00
2019-04-25T17:54:13.802Z,2.00
2019-04-25T17:56:46.797Z,1.00
2019-04-25T17:59:19.701Z,1.00
2019-04-25T18:01:52.808Z,1.80
2019-04-25T18:04:25.908Z,1.80
2019-04-25T18:06:58.846Z,1.80
2019-04-25T18:09:31.886Z,2.00
2019-04-25T18:12:05.011Z,1.80
2019-04-25T18:14:38.440Z,2.00
2019-04-25T18:17:11.475Z,2.00
2019-04-25T18:19:44.793Z,1.80
2019-04-25T18:22:18.010Z,2.00
2019-04-25T18:27:25.507Z,1.80
2019-04-25T18:29:58.584Z,2.60
2019-04-25T18:32:31.556Z,3.00
2019-04-25T18:35:05.113Z,3.00
2019-04-25T18:37:38.539Z,2.60
2019-04-25T18:40:11.721Z,3.00
2019-04-25T18:42:44.908Z,3.00
2019-04-25T18:45:17.743Z,3.00
2019-04-25T18:47:51.103Z,3.60
2019-04-25T18:50:23.930Z,3.00
2019-04-25T18:52:56.885Z,2.20
2019-04-25T18:55:29.706Z,2.20
2019-04-25T18:58:02.582Z,1.80
2019-04-25T19:00:35.637Z,2.20
2019-04-25T19:03:08.598Z,1.80
2019-04-25T19:05:41.421Z,2.00
2019-04-25T19:08:14.674Z,2.40
2019-04-25T19:10:47.506Z,2.00
2019-04-25T19:13:20.413Z,2.60
2019-04-25T19:15:53.567Z,3.00
2019-04-25T19:18:26.459Z,3.20
2019-04-25T19:20:59.377Z,18.40
2019-04-25T19:23:32.955Z,2.20
2019-04-25T19:26:05.896Z,2.00
2019-04-25T19:28:39.994Z,2.20
2019-04-25T19:31:13.920Z,2.00
2019-04-25T19:33:47.555Z,2.00
2019-04-25T19:36:20.557Z,3.00
2019-04-25T19:38:53.627Z,2.00
2019-04-25T19:41:26.686Z,6.00
2019-04-25T19:43:59.691Z,3.00
2019-04-25T19:46:32.868Z,3.00
2019-04-25T19:49:06.404Z,1.80
2019-04-25T19:51:39.442Z,0.80
2019-04-25T19:54:12.505Z,1.20
2019-04-25T19:56:45.454Z,1.60
2019-04-25T19:59:18.451Z,1.00
2019-04-25T20:01:52.701Z,0.00
2019-04-25T20:04:25.875Z,1.00
2019-04-25T20:06:58.747Z,1.60
2019-04-25T20:09:31.660Z,1.00
2019-04-25T20:12:04.704Z,2.00
2019-04-25T20:14:37.904Z,0.80
2019-04-25T20:17:10.904Z,1.00
2019-04-25T20:19:44.903Z,4.00
2019-04-25T20:22:18.932Z,3.20
2019-04-25T20:24:52.512Z,7.40
2019-04-25T20:27:25.676Z,5.40
2019-04-25T20:30:00.221Z,5.40
2019-04-25T20:32:33.201Z,5.00
2019-04-25T20:35:06.555Z,5.20
2019-04-25T20:37:39.564Z,4.00
2019-04-25T20:40:13.127Z,6.80
2019-04-25T20:42:47.940Z,5.00
2019-04-25T20:45:21.122Z,6.60
2019-04-25T20:47:54.752Z,7.40
2019-04-25T20:50:27.808Z,7.00
2019-04-25T20:53:00.820Z,8.20
2019-04-25T20:55:34.087Z,10.00
2019-04-25T20:58:07.343Z,9.20
2019-04-25T21:00:44.138Z,8.40
2019-04-25T21:03:17.117Z,8.20
2019-04-25T21:05:51.000Z,7.80
2019-04-25T21:08:24.546Z,7.60
2019-04-25T21:10:57.910Z,7.60
2019-04-25T21:13:30.904Z,5.60
2019-04-25T21:16:04.030Z,6.60
2019-04-25T21:18:36.947Z,8.40
2019-04-25T21:21:10.082Z,9.20
2019-04-25T21:23:43.314Z,9.40
2019-04-25T21:26:16.388Z,10.40
2019-04-25T21:28:52.059Z,10.60
2019-04-25T21:31:31.691Z,12.00
2019-04-25T21:34:04.852Z,11.20
2019-04-25T21:36:38.666Z,6.80
2019-04-25T21:39:11.881Z,7.00
2019-04-25T21:41:44.997Z,9.20
2019-04-25T21:44:21.460Z,8.80
2019-04-25T21:46:54.959Z,8.00
2019-04-25T21:49:28.371Z,7.40
2019-04-25T21:52:01.376Z,13.20
2019-04-25T21:54:34.687Z,7.80
2019-04-25T21:57:08.111Z,7.60
2019-04-25T21:59:41.042Z,8.20
2019-04-25T22:02:14.095Z,7.00
2019-04-25T22:04:47.359Z,8.40
2019-04-25T22:07:20.811Z,8.20
2019-04-25T22:09:54.633Z,8.40
2019-04-25T22:12:28.699Z,10.00
2019-04-25T22:15:01.797Z,9.00
2019-04-25T22:17:34.929Z,11.00
2019-04-25T22:20:08.279Z,8.60
2019-04-25T22:22:41.599Z,8.60
2019-04-25T22:25:14.761Z,9.00
2019-04-25T22:27:48.079Z,8.20
2019-04-25T22:30:21.165Z,10.60
2019-04-25T22:32:54.516Z,9.40
2019-04-25T22:35:27.505Z,10.20
2019-04-25T22:38:00.815Z,7.20
2019-04-25T22:40:34.915Z,9.20
2019-04-25T22:43:08.353Z,9.60
2019-04-25T22:45:42.080Z,10.60
2019-04-25T22:48:15.063Z,9.60
2019-04-25T22:50:48.266Z,9.00
2019-04-25T22:53:25.780Z,11.40
2019-04-25T22:55:55.914Z,11.80
2019-04-25T22:58:29.116Z,8.60
2019-04-25T23:01:03.229Z,11.00
2019-04-25T23:03:36.284Z,13.00
2019-04-25T23:06:09.683Z,10.40
2019-04-25T23:08:42.625Z,12.20
2019-04-25T23:11:15.577Z,11.40
2019-04-25T23:13:48.851Z,10.00
2019-04-25T23:16:22.070Z,11.80
2019-04-25T23:18:55.055Z,12.20
2019-04-25T23:21:28.041Z,12.20
2019-04-25T23:24:01.418Z,10.80
2019-04-25T23:26:34.450Z,10.80
2019-04-25T23:29:08.102Z,13.00
2019-04-25T23:31:41.003Z,11.00
2019-04-25T23:34:15.216Z,9.80
2019-04-25T23:36:48.199Z,11.00
2019-04-25T23:39:21.208Z,10.40
2019-04-25T23:41:54.344Z,11.40
2019-04-25T23:44:27.389Z,15.20
2019-04-25T23:47:00.781Z,11.40
2019-04-25T23:49:33.842Z,15.60
2019-04-25T23:52:07.394Z,14.60
2019-04-25T23:54:40.462Z,15.40
2019-04-25T23:57:13.708Z,7.00
2019-04-25T23:59:47.124Z,13.40
